Aérodrome :
LOGIN :

S'inscrire | Disclaimer

   EN    FR    IT 

 










Légende :    VFR   VFR Marginal   IFR   IFR Intensif   IFR Très Intensif
Visi : 
Plafond : 
>= 8 km
>= 3000ft
5 à 8 km
1000 à 3000 ft
1500m à 5 km
500 à 1000 ft
800 à 1500m
200 à 500 ft
< 800m
< 200 ft
Symboles :   Orages  Brouillard  Fortes neiges  Fortes précipitations  Vent > 20 kt
SIGMETs :   Divers  Orages  Givrage  Turbulence  Onde Orograph.  Cendres Volcan.






- Altitude de l'aérodrome : 637 ft
- Code IATA : MVQ


UMOO - Mogilev

DERNIER METAR :
  • 091100Z 31003MPS 9000 -TSRA BKN042CB OVC/// 21/19 Q1019 NOSIG

METARs EXPIRÉS :
  • 091000Z 33002MPS 9999 SCT035CB BKN/// 24/16 Q1020 NOSIG
  • 090900Z 36001MPS 9999 SCT030 BKN/// 24/16 Q1020 NOSIG

TAF COR TAF UMOO
Valide du 09 à 11h jusqu'au 09 à 21h UTC


091035Z 0911/0921 30005G10MPS 9999 BKN025
TEMPO 0911/0921 VRB12MPS 3000 -TSRA BKN007 SCT025CB



MET'MAP, la Météo Aéronautique d'un coup d'oeil ! - Copyright ORBIFLY Décembre 2007 - Disclaimer

ORBIFLY MET'MAP TEAM :

Programmation & Développement : Alexandra Zaïnal
Sur une idée originale de : Baudouin d'Aumeries
Assistance à la programmation : Marc-Olivier Méhu
Soutien technique & logistique : Manuel Goepfert

Contact : metmap@orbifly.com




SOURCES & CREDITS :

   NOAA